logo
Search for airport 
image banner adimage banner adimage banner ad
image banner ad

ZBHH - Hohhot/Baita

Located in Hohhot, China

ICAO - ZBHH, IATA - HET

Data provided by Airmate  

General information

Coordinates: N40°50'54" E111°49'24"
Elevation is 3556 feet MSL.
 
View others Airports in Inner Mongolia Autonomous Region

Operational data

Special qualification required
Current time UTC:
Current local time:
Weather
METAR: ZBHH 032100Z 04002MPS CAVOK M06/M11 Q1009 NOSIG
TAF: TAF ZBHH 031500Z 0318/0418 06004MPS 9999 FEW040 TX05/0407Z TNM12/0322Z
View NOTAMs / SUP AIP / TFR affecting this airport [VIEW]
Communications frequencies: [VIEW]

Runways:

RWY identifierQFULength (ft)Width (ft)SurfaceLDA (ft)
0873°11811148CON
26253°11811148CON

Airport contact information

Address: Hohhot China

Satellite view of ZBHH